Mammoth Lakes, CA (93546)

2:30 AM PST on December 07, 2016 (GMT -0800)
Bigwood, Mammoth Lakes, CA | | Change Station
Active Advisory: Winter Weather Advisory

Elev 8045 ft 37.64 °N, 118.99 °W | Updated 1 second ago

Clear
Clear
30.0 °F
Feels Like 30 °F
N
0.0
Wind Variable Wind from South
Gusts 11.0 mph

Today
High -- | Low -- °F
--% Chance of Precip.
Yesterday
High -- | Low -- °F
Precip. -- in
Pressure 29.97 in
Visibility 10.0 miles
Clouds Clear
Windchill 30 °F
Dew Point -13 °F
Humidity 10%
Rainfall 0.00 in
Snow Depth Not available.
6:58 AM 4:37 PM
Waxing Crescent, 51% visible
METAR KMMH 071015Z AUTO 03003KT 10SM CLR M07/M18 A2997 RMK AO2 T10711180
Pressure 29.97 in
Visibility 10.0 miles
Clouds Clear
Windchill 30 °F
Dew Point -13 °F
Humidity 10%
Rainfall 0.00 in
Snow Depth Not available.
6:58 AM 4:37 PM
Waxing Crescent, 51% visible
METAR KMMH 071015Z AUTO 03003KT 10SM CLR M07/M18 A2997 RMK AO2 T10711180

10-Day Weather Forecast

Almanac

Astronomy

Dec. 07, 2016 Rise Set
Actual Time
Civil Twilight
Nautical Twilight
Astronomical Twilight
Moon
Length of Visible Light
Length of Day
Tomorrow will be .
, % of the Moon is Illuminated

Today's Extremes

State Highs State Lows

Community

WunderPhotos

Upload Photos

1,956,111 photos uploaded!

WunderBlog® & News

Nearby

Air Quality

  Air Quality AQ Index Pollutant
Not available.

Snow Depth

Station Depth Elevation

Earthquake Activity

City Distance Mag. Time & Date
Minimum magnitude displayed is 2.5.

Coastal Water Temperatures

Place Temperature

Stations

Nearby Weather Stations

Station Location Temp. Windchill Dew Point Humidity Wind Precip. Elev Updated Type
                   

Watches & Warnings

Winter Weather Advisory
Issued: 7:04 PM PST Dec. 6, 2016 – National Weather Service

... Winter Weather Advisory in effect from 10 PM Wednesday to
10 am PST Thursday...

The National Weather Service in Reno has issued a Winter Weather
Advisory for freezing rain and snow, which is in effect from 10
PM Wednesday to 10 am PST Thursday.

* Timing: snow will spread across the area Wednesday night... then
become mixed with freezing rain... rain and sleet in the valleys
early Thursday morning.

* Snow accumulations: 1 to 4 inches.

* Freezing rain accumulations: up to 0.10"

* snow levels: all valley floors Wednesday evening... then rising to
over 7000 feet late Thursday morning with mixed winter
precipitation in the valleys.

* Impacts: a light coating of black ice could create very
difficult travel conditions. Ice will also accumulate on
sidewalks... tree limbs and powerlines. Those with travel plans
are urged to maintain an increased awareness while driving
Wednesday night and Thursday morning.

Precautionary/preparedness actions...

Even light snowfall causes major travel delays, especially during
periods of high traffic volume. Be sure to allow extra time to
reach your destination. Leave extra space between vehicles since
it takes longer to stop on slick roadways.



Http://weather.Gov/Reno